Time;durP1;ratioP1;P1;durP2;ratioP2;P2;SDS_P1;SDS_P2;PMS_P1;PMS_P2;Temp;Humidity;BMP_temperature;BMP_pressure;BME280_temperature;BME280_humidity;BME280_pressure;Samples;Min_cycle;Max_cycle;Signal;HPM_P1;HPM_P2
2022/11/20 00:00:17;;;;;;;4.40;2.80;;;14.20;1.00;;;;;;4806593;29;20572;-38
2022/11/20 00:02:44;;;;;;;3.10;1.90;;;14.20;1.00;;;;;;4807667;29;20118;-38
2022/11/20 00:05:10;;;;;;;2.90;2.15;;;14.20;1.00;;;;;;4807892;29;20418;-38
2022/11/20 00:07:37;;;;;;;3.75;2.28;;;14.20;1.00;;;;;;4807813;29;20134;-38
2022/11/20 00:10:04;;;;;;;4.00;2.63;;;14.20;1.00;;;;;;4807676;29;20050;-38
2022/11/20 00:12:31;;;;;;;3.13;2.25;;;14.20;1.00;;;;;;4807432;29;20066;-38
2022/11/20 00:14:58;;;;;;;3.92;2.70;;;14.20;1.00;;;;;;4806566;29;20096;-38
2022/11/20 00:17:25;;;;;;;4.25;2.63;;;14.20;1.00;;;;;;4807833;29;20469;-38
2022/11/20 00:19:51;;;;;;;4.43;2.60;;;14.20;1.00;;;;;;4807559;29;20093;-39
2022/11/20 00:22:18;;;;;;;3.65;2.20;;;14.10;1.00;;;;;;4807363;29;20050;-38
2022/11/20 00:24:45;;;;;;;3.08;2.10;;;14.10;1.00;;;;;;4807563;29;20084;-38
2022/11/20 00:27:11;;;;;;;4.18;2.90;;;14.10;1.00;;;;;;4807432;29;20047;-38
2022/11/20 00:29:38;;;;;;;4.70;2.58;;;14.10;1.00;;;;;;4807533;29;20082;-38
2022/11/20 00:32:04;;;;;;;4.10;2.30;;;14.10;1.00;;;;;;4807456;29;20083;-38
2022/11/20 00:34:31;;;;;;;4.90;2.88;;;14.10;1.00;;;;;;4807281;29;20043;-38
2022/11/20 00:36:58;;;;;;;4.82;2.80;;;14.10;1.00;;;;;;4807353;29;20126;-38
2022/11/20 00:39:25;;;;;;;5.03;2.30;;;14.10;1.00;;;;;;4807217;29;20047;-38
2022/11/20 00:41:51;;;;;;;4.53;2.30;;;14.00;1.00;;;;;;4807153;29;20051;-38
2022/11/20 00:44:18;;;;;;;3.95;2.55;;;14.00;1.00;;;;;;4806877;29;20126;-38
2022/11/20 00:46:45;;;;;;;4.38;2.45;;;14.00;1.00;;;;;;4807090;29;20043;-38
2022/11/20 00:49:11;;;;;;;4.10;2.47;;;14.00;1.00;;;;;;4807287;29;20491;-39
2022/11/20 00:51:38;;;;;;;3.83;2.17;;;13.90;1.00;;;;;;4806961;29;20096;-38
2022/11/20 00:54:05;;;;;;;3.67;2.53;;;13.90;1.00;;;;;;4806804;29;20575;-38
2022/11/20 00:56:31;;;;;;;3.78;2.47;;;13.90;1.00;;;;;;4807109;29;20093;-38
2022/11/20 00:59:00;;;;;;;4.32;2.60;;;13.90;1.00;;;;;;4807223;29;20427;-38
2022/11/20 01:01:29;;;;;;;4.22;2.47;;;13.80;1.00;;;;;;4806856;29;20122;-38
2022/11/20 01:03:58;;;;;;;3.92;2.30;;;13.80;1.00;;;;;;4806719;29;20050;-38
2022/11/20 01:06:26;;;;;;;6.18;2.95;;;13.80;1.00;;;;;;4806889;29;20118;-38
2022/11/20 01:08:58;;;;;;;3.90;2.35;;;13.80;1.00;;;;;;4806821;29;20051;-38
2022/11/20 01:11:30;;;;;;;2.80;2.10;;;13.80;1.00;;;;;;4806762;29;20058;-38
2022/11/20 01:13:59;;;;;;;4.90;2.83;;;13.80;1.00;;;;;;4806678;29;20078;-38
2022/11/20 01:16:28;;;;;;;4.78;2.63;;;13.70;1.00;;;;;;4806727;29;20047;-38
2022/11/20 01:18:58;;;;;;;4.93;2.47;;;13.70;1.00;;;;;;4806536;29;20047;-38
2022/11/20 01:21:31;;;;;;;5.15;2.58;;;13.70;1.00;;;;;;4806437;29;20051;-38
2022/11/20 01:23:58;;;;;;;5.05;2.95;;;13.70;1.00;;;;;;4806561;29;20085;-38
2022/11/20 01:26:27;;;;;;;3.42;2.47;;;13.60;1.00;;;;;;4806457;29;20121;-38
2022/11/20 01:28:55;;;;;;;4.30;2.50;;;13.60;1.00;;;;;;4806511;29;20070;-38
2022/11/20 01:31:27;;;;;;;4.63;2.72;;;13.60;1.00;;;;;;4806440;29;20073;-38
2022/11/20 01:33:57;;;;;;;5.18;2.65;;;13.60;1.00;;;;;;4806230;29;20055;-38
2022/11/20 01:36:26;;;;;;;4.45;2.70;;;13.60;1.00;;;;;;4806360;29;20057;-38
2022/11/20 01:39:01;;;;;;;4.15;2.33;;;13.60;1.00;;;;;;4806415;29;20426;-38
2022/11/20 01:44:18;;;;;;;4.45;2.53;;;13.50;1.00;;;;;;4806052;29;20047;-37
2022/11/20 01:47:14;;;;;;;4.35;2.55;;;13.50;1.00;;;;;;4806116;29;20134;-38
2022/11/20 01:50:03;;;;;;;4.10;2.83;;;13.50;1.00;;;;;;4805490;29;20063;-38
2022/11/20 01:52:53;;;;;;;4.95;2.30;;;13.50;1.00;;;;;;4805565;29;20076;-39
2022/11/20 01:55:23;;;;;;;4.03;2.70;;;13.40;1.00;;;;;;4801835;29;20135;-38
2022/11/20 01:57:50;;;;;;;4.15;2.90;;;13.40;1.00;;;;;;4806184;29;20104;-37
2022/11/20 02:00:19;;;;;;;3.28;2.47;;;13.40;1.00;;;;;;4805738;29;20543;-38
2022/11/20 02:02:53;;;;;;;3.65;2.45;;;13.40;1.00;;;;;;4805684;29;20042;-38
2022/11/20 02:05:22;;;;;;;4.40;2.70;;;13.40;1.00;;;;;;4806045;29;20094;-38
2022/11/20 02:07:50;;;;;;;3.42;2.25;;;13.30;1.00;;;;;;4805814;29;20104;-37
2022/11/20 02:10:17;;;;;;;4.32;2.20;;;13.30;1.00;;;;;;4805656;29;20062;-38
2022/11/20 02:15:29;;;;;;;2.78;2.15;;;13.30;1.00;;;;;;4805695;29;20085;-38
2022/11/20 02:17:56;;;;;;;4.13;2.78;;;13.30;1.00;;;;;;4805629;29;20566;-37
2022/11/20 02:20:23;;;;;;;3.67;2.85;;;13.20;1.00;;;;;;4805555;29;20054;-38
2022/11/20 02:22:59;;;;;;;2.85;2.17;;;13.20;1.00;;;;;;4805667;29;20399;-38
2022/11/20 02:25:27;;;;;;;4.75;2.80;;;13.20;1.00;;;;;;4805453;29;20081;-38
2022/11/20 02:27:54;;;;;;;4.05;2.22;;;13.20;1.00;;;;;;4805424;29;20088;-38
2022/11/20 02:30:21;;;;;;;3.85;2.70;;;13.20;1.00;;;;;;4805594;29;20058;-38
2022/11/20 02:32:48;;;;;;;3.88;2.45;;;13.20;1.00;;;;;;4805140;29;20115;-38
2022/11/20 02:35:17;;;;;;;5.68;2.92;;;13.20;1.00;;;;;;4805420;29;20054;-38
2022/11/20 02:37:48;;;;;;;4.30;2.80;;;13.20;1.00;;;;;;4805731;29;20407;-38
2022/11/20 02:40:14;;;;;;;4.40;2.50;;;13.10;1.00;;;;;;4804973;29;20055;-38
2022/11/20 02:42:41;;;;;;;5.22;2.53;;;13.10;1.00;;;;;;4803882;29;20057;-38
2022/11/20 02:45:08;;;;;;;4.28;2.58;;;13.10;1.00;;;;;;4805225;29;20118;-38
2022/11/20 02:47:35;;;;;;;3.20;2.13;;;13.10;1.00;;;;;;4805226;29;20047;-38
2022/11/20 02:50:02;;;;;;;3.92;2.08;;;13.10;1.00;;;;;;4805166;29;20054;-38
2022/11/20 02:52:30;;;;;;;4.95;2.83;;;13.10;1.00;;;;;;4804847;29;20496;-38
2022/11/20 02:54:57;;;;;;;6.43;2.92;;;13.10;1.00;;;;;;4804996;29;20046;-39
2022/11/20 02:57:23;;;;;;;4.40;2.80;;;13.00;1.00;;;;;;4805120;29;20043;-38
2022/11/20 02:59:50;;;;;;;4.05;2.38;;;13.00;1.00;;;;;;4804999;29;20051;-38
2022/11/20 03:02:17;;;;;;;4.07;2.50;;;13.00;1.00;;;;;;4804745;29;20115;-38
2022/11/20 03:04:43;;;;;;;4.47;2.85;;;13.00;1.00;;;;;;4804923;29;20076;-39
2022/11/20 03:07:10;;;;;;;4.72;3.33;;;13.00;1.00;;;;;;4803982;29;20095;-38
2022/11/20 03:09:37;;;;;;;4.47;2.60;;;13.00;1.00;;;;;;4804808;29;20509;-38
2022/11/20 03:12:04;;;;;;;4.47;2.38;;;13.00;1.00;;;;;;4804875;29;20047;-38
2022/11/20 03:14:31;;;;;;;3.92;2.88;;;12.90;1.00;;;;;;4804747;29;20515;-38
2022/11/20 03:16:58;;;;;;;5.85;2.47;;;12.90;1.00;;;;;;4804802;29;20054;-38
2022/11/20 03:19:24;;;;;;;4.85;2.90;;;12.90;1.00;;;;;;4804787;29;20057;-38
2022/11/20 03:21:51;;;;;;;3.67;2.17;;;12.90;1.00;;;;;;4804551;29;20047;-39
2022/11/20 03:24:18;;;;;;;4.93;2.72;;;12.90;1.00;;;;;;4805031;29;20042;-38
2022/11/20 03:26:44;;;;;;;3.45;2.40;;;12.90;1.00;;;;;;4804772;29;20062;-38
2022/11/20 03:29:11;;;;;;;3.15;2.15;;;12.90;1.00;;;;;;4804694;29;20047;-38
2022/11/20 03:31:42;;;;;;;3.85;2.45;;;12.90;1.00;;;;;;4804901;29;20059;-38
2022/11/20 03:34:11;;;;;;;3.70;2.45;;;12.80;1.00;;;;;;4804446;29;20081;-38
2022/11/20 03:36:39;;;;;;;4.00;2.83;;;12.80;1.00;;;;;;4804704;29;20055;-38
2022/11/20 03:39:06;;;;;;;4.47;2.85;;;12.80;1.00;;;;;;4804665;29;20047;-38
2022/11/20 03:41:38;;;;;;;4.30;2.45;;;12.80;1.00;;;;;;4804545;29;20047;-38
2022/11/20 03:44:07;;;;;;;2.83;2.22;;;12.80;1.00;;;;;;4804396;29;20050;-38
2022/11/20 03:46:34;;;;;;;3.97;2.50;;;12.80;1.00;;;;;;4804564;29;20051;-38
2022/11/20 03:49:02;;;;;;;4.97;2.50;;;12.80;1.00;;;;;;4804581;29;20057;-38
2022/11/20 03:51:34;;;;;;;4.32;2.63;;;12.80;1.00;;;;;;4804431;29;20507;-38
2022/11/20 03:54:04;;;;;;;3.20;2.13;;;12.80;1.00;;;;;;4804234;29;20054;-38
2022/11/20 03:56:34;;;;;;;5.43;2.45;;;12.70;1.00;;;;;;4804548;29;20051;-38
2022/11/20 03:59:01;;;;;;;3.97;2.42;;;12.70;1.00;;;;;;4804560;29;20558;-38
2022/11/20 04:01:31;;;;;;;4.22;2.72;;;12.70;1.00;;;;;;4804167;29;20137;-38
2022/11/20 04:03:58;;;;;;;4.68;2.33;;;12.70;1.00;;;;;;4804391;29;20066;-38
2022/11/20 04:06:27;;;;;;;6.20;2.90;;;12.70;1.00;;;;;;4804464;29;20062;-38
2022/11/20 04:08:55;;;;;;;4.22;2.67;;;12.70;1.00;;;;;;4804375;29;20078;-38
2022/11/20 04:11:25;;;;;;;4.82;1.92;;;12.70;1.00;;;;;;4804326;29;20074;-37
2022/11/20 04:13:57;;;;;;;4.45;3.13;;;12.70;1.00;;;;;;4804052;29;20137;-43
2022/11/20 04:16:26;;;;;;;5.03;2.97;;;12.60;1.00;;;;;;4804398;29;20061;-38
2022/11/20 04:18:58;;;;;;;3.47;2.05;;;12.60;1.00;;;;;;4805536;29;20129;-38
2022/11/20 04:21:25;;;;;;;3.65;2.60;;;12.60;1.00;;;;;;4827433;24;20110;-38
2022/11/20 04:23:52;;;;;;;4.30;2.50;;;12.60;1.00;;;;;;4808631;29;20062;-38
2022/11/20 04:26:21;;;;;;;4.63;3.00;;;12.60;1.00;;;;;;4825768;29;20103;-38
2022/11/20 04:28:48;;;;;;;3.45;2.15;;;12.60;1.00;;;;;;4825850;29;20051;-38
2022/11/20 04:31:17;;;;;;;4.38;2.50;;;12.60;1.00;;;;;;4825455;29;20567;-37
2022/11/20 04:33:45;;;;;;;5.75;2.83;;;12.60;1.00;;;;;;4825416;29;20132;-37
2022/11/20 04:36:19;;;;;;;4.25;2.40;;;12.50;1.00;;;;;;4825511;29;20057;-39
2022/11/20 04:38:50;;;;;;;4.57;2.70;;;12.50;1.00;;;;;;4825372;29;20131;-39
2022/11/20 04:41:28;;;;;;;3.13;2.42;;;12.50;1.00;;;;;;4825300;29;20081;-39
2022/11/20 04:43:59;;;;;;;4.18;2.72;;;12.50;1.00;;;;;;4825111;29;20053;-39
2022/11/20 04:46:27;;;;;;;3.92;2.40;;;12.50;1.00;;;;;;4825370;29;20053;-39
2022/11/20 04:48:54;;;;;;;3.47;2.58;;;12.50;1.00;;;;;;4825213;29;20154;-39
2022/11/20 04:51:21;;;;;;;4.65;2.78;;;12.50;1.00;;;;;;4825076;29;20417;-39
2022/11/20 04:53:48;;;;;;;5.22;3.25;;;12.50;1.00;;;;;;4824998;29;20107;-39
2022/11/20 04:56:15;;;;;;;5.53;2.75;;;12.40;1.00;;;;;;4825145;29;20075;-39
2022/11/20 04:58:42;;;;;;;4.10;2.50;;;12.40;1.00;;;;;;4838499;29;20058;-39
2022/11/20 05:01:17;;;;;;;2.88;2.00;;;12.40;1.00;;;;;;4831564;29;20055;-39
2022/11/20 05:03:44;;;;;;;3.45;2.83;;;12.40;1.00;;;;;;4839023;29;20069;-39
2022/11/20 05:06:13;;;;;;;4.78;2.80;;;12.40;1.00;;;;;;4843166;29;20558;-39
2022/11/20 05:08:41;;;;;;;5.63;2.80;;;12.40;1.00;;;;;;4843307;29;20038;-39
2022/11/20 05:11:10;;;;;;;3.13;1.85;;;12.40;1.00;;;;;;4843323;29;20046;-40
2022/11/20 05:13:38;;;;;;;3.20;2.42;;;12.40;1.00;;;;;;4842895;29;20103;-40
2022/11/20 05:16:16;;;;;;;4.68;2.92;;;12.40;1.00;;;;;;4843118;29;20050;-39
2022/11/20 05:18:43;;;;;;;4.78;2.90;;;12.40;1.00;;;;;;4843185;29;20054;-39
2022/11/20 05:21:11;;;;;;;4.68;2.88;;;12.40;1.00;;;;;;4842813;29;20133;-39
2022/11/20 05:23:39;;;;;;;4.15;2.50;;;12.30;1.00;;;;;;4842898;29;20463;-39
2022/11/20 05:26:11;;;;;;;4.95;2.83;;;12.30;1.00;;;;;;4843007;29;20050;-39
2022/11/20 05:28:38;;;;;;;4.47;3.00;;;12.30;1.00;;;;;;4842963;29;20513;-39
2022/11/20 05:31:07;;;;;;;4.95;2.38;;;12.30;1.00;;;;;;4841958;29;20567;-39
2022/11/20 05:33:35;;;;;;;4.85;2.92;;;12.30;1.00;;;;;;4842551;29;20054;-39
2022/11/20 05:36:03;;;;;;;3.72;2.35;;;12.30;1.00;;;;;;4842890;29;20137;-39
2022/11/20 05:38:30;;;;;;;4.07;2.85;;;12.30;1.00;;;;;;4842883;29;20046;-39
2022/11/20 05:41:08;;;;;;;4.13;2.70;;;12.30;1.00;;;;;;4838734;29;20121;-39
2022/11/20 05:43:36;;;;;;;4.30;2.70;;;12.20;1.00;;;;;;4842384;29;20133;-39
2022/11/20 05:46:04;;;;;;;4.22;2.85;;;12.20;1.00;;;;;;4842624;29;20140;-39
2022/11/20 05:48:32;;;;;;;5.82;3.20;;;12.20;1.00;;;;;;4829809;29;20050;-39
2022/11/20 05:51:00;;;;;;;3.30;2.38;;;12.20;1.00;;;;;;4824181;29;20043;-39
2022/11/20 05:53:28;;;;;;;5.30;2.78;;;12.20;1.00;;;;;;4807840;29;20081;-39
2022/11/20 05:55:59;;;;;;;4.45;2.83;;;12.20;1.00;;;;;;4824118;29;20042;-39
2022/11/20 05:58:26;;;;;;;4.47;2.63;;;12.20;1.00;;;;;;4824302;29;20448;-39
2022/11/20 06:00:53;;;;;;;4.20;2.80;;;12.20;1.00;;;;;;4823972;29;20047;-39
2022/11/20 06:03:20;;;;;;;5.50;2.92;;;12.20;1.00;;;;;;4823894;29;20050;-39
2022/11/20 06:05:46;;;;;;;5.22;2.90;;;12.20;1.00;;;;;;4824129;29;20123;-39
2022/11/20 06:08:13;;;;;;;3.70;2.35;;;12.20;1.00;;;;;;4823964;29;20051;-39
2022/11/20 06:10:40;;;;;;;3.72;2.22;;;12.10;1.00;;;;;;4823911;29;20590;-39
2022/11/20 06:13:07;;;;;;;6.07;3.08;;;12.20;1.00;;;;;;4823762;29;20073;-39
2022/11/20 06:15:33;;;;;;;5.22;3.05;;;12.10;1.00;;;;;;4824010;29;20073;-39
2022/11/20 06:18:00;;;;;;;4.15;2.90;;;12.10;1.00;;;;;;4823956;29;20554;-39
2022/11/20 06:20:27;;;;;;;3.97;2.55;;;12.10;1.00;;;;;;4823706;29;20050;-39
2022/11/20 06:22:53;;;;;;;4.57;2.92;;;12.10;1.00;;;;;;4823371;29;20054;-39
2022/11/20 06:25:20;;;;;;;4.85;2.67;;;12.10;1.00;;;;;;4823690;29;20050;-39
2022/11/20 06:27:47;;;;;;;5.03;2.95;;;12.00;1.00;;;;;;4807329;29;20586;-39
2022/11/20 06:30:14;;;;;;;5.57;2.70;;;12.00;1.00;;;;;;4823720;29;20050;-39
2022/11/20 06:32:40;;;;;;;4.85;2.90;;;12.00;1.00;;;;;;4823454;29;20112;-39
2022/11/20 06:35:07;;;;;;;5.07;3.15;;;12.00;1.00;;;;;;4806797;29;20122;-39
2022/11/20 06:37:34;;;;;;;4.85;2.97;;;12.00;1.00;;;;;;4823542;29;20133;-39
2022/11/20 06:40:01;;;;;;;5.30;3.25;;;12.00;1.00;;;;;;4823692;29;20054;-39
2022/11/20 06:42:28;;;;;;;5.95;2.88;;;12.00;1.00;;;;;;4823329;29;20430;-39
2022/11/20 06:44:54;;;;;;;4.90;2.60;;;12.00;1.00;;;;;;4823519;29;20087;-39
2022/11/20 06:47:21;;;;;;;5.32;3.17;;;11.90;1.00;;;;;;4823633;29;20406;-39
2022/11/20 06:49:48;;;;;;;5.28;3.10;;;11.90;1.00;;;;;;4823487;29;20047;-39
2022/11/20 06:52:14;;;;;;;4.90;3.20;;;11.90;1.00;;;;;;4822973;29;20498;-38
2022/11/20 06:54:41;;;;;;;3.67;2.58;;;11.90;1.00;;;;;;4823457;29;20054;-38
2022/11/20 06:57:08;;;;;;;4.65;2.75;;;11.90;1.00;;;;;;4823238;29;20126;-39
2022/11/20 06:59:35;;;;;;;5.47;3.05;;;11.90;1.00;;;;;;4820248;29;20057;-38
2022/11/20 07:02:02;;;;;;;4.43;3.03;;;11.90;1.00;;;;;;4818662;29;20050;-39
2022/11/20 07:04:28;;;;;;;4.18;2.58;;;11.80;1.00;;;;;;4801638;29;20069;-39
2022/11/20 07:06:55;;;;;;;5.05;3.22;;;11.90;1.00;;;;;;4823130;29;20095;-39
2022/11/20 07:09:22;;;;;;;4.53;3.10;;;11.80;1.00;;;;;;4823146;29;20042;-38
2022/11/20 07:11:49;;;;;;;4.38;2.83;;;11.80;1.00;;;;;;4806599;29;20161;-38
2022/11/20 07:14:16;;;;;;;4.95;2.65;;;11.80;1.00;;;;;;4822910;29;20491;-38
2022/11/20 07:16:42;;;;;;;6.18;3.17;;;11.80;1.00;;;;;;4823115;29;20046;-39
2022/11/20 07:19:09;;;;;;;4.32;2.78;;;11.80;1.00;;;;;;4822908;29;20050;-39
2022/11/20 07:21:36;;;;;;;6.70;4.15;;;11.80;1.00;;;;;;4822800;29;20058;-39
2022/11/20 07:24:03;;;;;;;5.07;3.08;;;11.80;1.00;;;;;;4822815;29;20046;-38
2022/11/20 07:26:30;;;;;;;6.10;3.50;;;11.80;1.00;;;;;;4822975;29;20122;-38
2022/11/20 07:28:56;;;;;;;4.03;2.50;;;11.70;1.00;;;;;;4822916;29;20034;-39
2022/11/20 07:31:23;;;;;;;4.68;2.72;;;11.70;1.00;;;;;;4822882;29;20042;-39
2022/11/20 07:33:50;;;;;;;4.82;3.25;;;11.70;1.00;;;;;;4822523;29;20107;-39
2022/11/20 07:36:16;;;;;;;7.15;3.70;;;11.70;1.00;;;;;;4822852;29;20046;-38
2022/11/20 07:38:43;;;;;;;4.85;2.80;;;11.70;1.00;;;;;;4822910;29;20241;-39
2022/11/20 07:41:10;;;;;;;6.05;3.60;;;11.70;1.00;;;;;;4822787;29;20100;-38
2022/11/20 07:43:36;;;;;;;4.60;3.13;;;11.70;1.00;;;;;;4822496;29;20228;-39
2022/11/20 07:46:07;;;;;;;5.28;2.60;;;11.70;1.00;;;;;;4822746;29;20659;-39
2022/11/20 07:48:34;;;;;;;3.67;2.78;;;11.70;1.00;;;;;;4822726;29;20050;-38
2022/11/20 07:51:00;;;;;;;4.60;2.60;;;11.60;1.00;;;;;;4822614;29;20070;-38
2022/11/20 07:53:27;;;;;;;4.70;3.17;;;11.60;1.00;;;;;;4823296;29;20460;-38
2022/11/20 07:55:54;;;;;;;5.22;3.13;;;11.60;1.00;;;;;;4809714;29;20058;-39
2022/11/20 07:58:21;;;;;;;10.50;3.50;;;11.60;1.00;;;;;;4826334;29;20058;-39
2022/11/20 08:00:47;;;;;;;3.90;3.10;;;11.60;1.00;;;;;;4825918;29;20038;-38
2022/11/20 08:03:14;;;;;;;7.95;4.38;;;11.60;1.00;;;;;;4808115;29;20051;-38
2022/11/20 08:05:49;;;;;;;8.88;3.05;;;11.60;1.00;;;;;;4840777;29;20050;-38
2022/11/20 08:08:16;;;;;;;9.30;3.90;;;11.60;1.00;;;;;;4839128;29;20089;-38
2022/11/20 08:10:43;;;;;;;5.63;3.25;;;11.60;1.00;;;;;;4840706;29;20050;-39
2022/11/20 08:15:55;;;;;;;14.15;3.08;;;11.60;1.00;;;;;;4825032;29;20038;-39
2022/11/20 08:18:22;;;;;;;8.05;3.00;;;11.60;1.00;;;;;;4832153;29;20080;-39
2022/11/20 08:20:58;;;;;;;6.32;3.58;;;11.60;1.00;;;;;;4837248;29;20581;-39
2022/11/20 08:23:24;;;;;;;6.70;3.33;;;11.60;1.00;;;;;;4843296;29;20459;-39
2022/11/20 08:25:51;;;;;;;13.23;3.30;;;11.50;1.00;;;;;;4843872;29;20107;-39
2022/11/20 08:28:18;;;;;;;6.50;3.25;;;11.50;1.00;;;;;;4838133;29;20046;-39
2022/11/20 08:30:49;;;;;;;9.95;3.25;;;11.50;1.00;;;;;;4825336;29;20070;-39
2022/11/20 08:33:17;;;;;;;5.13;3.15;;;11.60;1.00;;;;;;4824719;29;20049;-39
2022/11/20 08:35:44;;;;;;;4.13;3.15;;;11.60;1.00;;;;;;4825330;29;20091;-39
2022/11/20 08:38:11;;;;;;;6.25;3.10;;;11.60;1.00;;;;;;4825579;29;20502;-39
2022/11/20 08:40:37;;;;;;;4.38;2.70;;;11.60;1.00;;;;;;4808769;29;20442;-39
2022/11/20 08:43:04;;;;;;;4.75;3.38;;;11.50;1.00;;;;;;4823876;29;20081;-39
2022/11/20 08:45:31;;;;;;;17.88;3.50;;;11.50;1.00;;;;;;4816496;29;20087;-39
2022/11/20 08:48:02;;;;;;;7.40;4.22;;;11.60;1.00;;;;;;4841525;29;20102;-39
2022/11/20 08:50:31;;;;;;;7.70;4.95;;;11.60;1.00;;;;;;4832214;29;20038;-39
2022/11/20 08:53:04;;;;;;;3.88;2.67;;;11.60;1.00;;;;;;4808667;29;20141;-39
2022/11/20 08:55:31;;;;;;;5.32;3.38;;;11.60;1.00;;;;;;4825043;29;20060;-39
2022/11/20 08:57:58;;;;;;;8.00;3.20;;;11.60;1.00;;;;;;4823491;29;20047;-39
2022/11/20 09:00:24;;;;;;;6.30;3.33;;;11.70;1.00;;;;;;4824798;29;20555;-39
2022/11/20 09:02:52;;;;;;;14.02;2.90;;;11.70;1.00;;;;;;4825990;29;20039;-38
2022/11/20 09:05:18;;;;;;;10.60;3.28;;;11.80;1.00;;;;;;4831383;29;20069;-38
2022/11/20 09:07:45;;;;;;;4.35;2.58;;;11.80;1.00;;;;;;4838258;29;20050;-38
2022/11/20 09:10:12;;;;;;;10.95;3.90;;;11.90;1.00;;;;;;4842544;29;20042;-39
2022/11/20 09:12:51;;;;;;;6.22;3.88;;;12.00;1.00;;;;;;4841162;29;20124;-38
2022/11/20 09:15:19;;;;;;;12.68;4.32;;;12.10;1.00;;;;;;4841245;29;20048;-39
2022/11/20 09:17:52;;;;;;;7.72;4.00;;;12.10;1.00;;;;;;4841258;29;20084;-38
2022/11/20 09:20:19;;;;;;;8.40;4.50;;;12.20;1.00;;;;;;4840980;29;20054;-39
2022/11/20 09:22:46;;;;;;;8.18;4.03;;;12.30;1.00;;;;;;4841241;29;20545;-39
2022/11/20 09:25:13;;;;;;;12.35;5.38;;;12.30;1.00;;;;;;4841721;29;20052;-39
2022/11/20 09:27:43;;;;;;;7.10;3.90;;;12.40;1.00;;;;;;4843170;29;20125;-39
2022/11/20 09:30:10;;;;;;;6.90;3.67;;;12.50;1.00;;;;;;4842837;29;20048;-39
2022/11/20 09:32:39;;;;;;;7.25;4.35;;;12.60;1.00;;;;;;4839866;29;20089;-39
2022/11/20 09:35:06;;;;;;;10.95;4.68;;;12.60;1.00;;;;;;4834422;29;20046;-39
2022/11/20 09:37:33;;;;;;;7.25;4.30;;;12.70;1.00;;;;;;4831090;29;20059;-39
2022/11/20 09:39:59;;;;;;;9.27;4.32;;;12.80;1.00;;;;;;4815817;29;20053;-39
2022/11/20 09:42:57;;;;;;;9.88;4.00;;;12.90;1.00;;;;;;4835811;29;20070;-39
2022/11/20 09:45:51;;;;;;;7.72;3.90;;;13.00;1.00;;;;;;4842571;29;20045;-39
2022/11/20 09:48:49;;;;;;;6.82;3.78;;;13.20;1.00;;;;;;4842640;29;20042;-39
2022/11/20 09:51:46;;;;;;;5.40;2.88;;;13.40;1.00;;;;;;4835116;29;20106;-39
2022/11/20 09:54:21;;;;;;;5.53;3.10;;;13.70;1.00;;;;;;4832289;29;20121;-39
2022/11/20 09:57:18;;;;;;;5.30;3.70;;;13.90;1.00;;;;;;4823008;29;20046;-38
2022/11/20 10:00:00;;;;;;;8.05;2.90;;;14.20;1.00;;;;;;4823025;29;20103;-39
2022/11/20 10:02:34;;;;;;;3.58;2.28;;;14.40;1.00;;;;;;4823552;29;20042;-39
2022/11/20 10:05:44;;;;;;;4.35;2.72;;;14.60;1.00;;;;;;4823253;29;20121;-39
2022/11/20 10:08:20;;;;;;;5.55;3.33;;;14.80;1.00;;;;;;4741128;30;20056;-39
2022/11/20 10:10:54;;;;;;;5.78;2.50;;;14.90;1.00;;;;;;4732135;30;20048;-39
2022/11/20 10:13:40;;;;;;;4.55;2.67;;;15.10;1.00;;;;;;4792873;29;20137;-39
2022/11/20 10:16:06;;;;;;;4.22;2.55;;;15.30;1.00;;;;;;4841578;29;20133;-39
2022/11/20 10:18:44;;;;;;;5.03;2.47;;;15.30;1.00;;;;;;4840975;29;20464;-39
2022/11/20 10:21:23;;;;;;;4.15;2.10;;;15.50;1.00;;;;;;4840859;29;20553;-39
2022/11/20 10:23:50;;;;;;;3.63;2.25;;;15.70;1.00;;;;;;4833377;29;20045;-38
2022/11/20 10:26:22;;;;;;;7.07;2.30;;;15.90;1.00;;;;;;4830585;29;20425;-38
2022/11/20 10:29:10;;;;;;;25.08;4.65;;;16.10;1.00;;;;;;4823393;29;20053;-39
2022/11/20 10:31:44;;;;;;;5.03;2.47;;;16.30;1.00;;;;;;4805414;29;20089;-39
2022/11/20 10:34:26;;;;;;;2.92;2.30;;;16.60;1.00;;;;;;4810529;29;20514;-39
2022/11/20 10:37:04;;;;;;;3.60;2.17;;;16.80;1.00;;;;;;4823898;29;20050;-39
2022/11/20 10:40:17;;;;;;;3.83;2.17;;;17.00;1.00;;;;;;4822985;29;20077;-39
2022/11/20 10:42:51;;;;;;;3.70;1.87;;;17.30;1.00;;;;;;4808348;29;20065;-39
2022/11/20 10:45:23;;;;;;;3.05;2.20;;;17.50;1.00;;;;;;4801860;29;20045;-39
2022/11/20 10:47:56;;;;;;;2.20;1.83;;;17.70;1.00;;;;;;4824551;29;20555;-39
2022/11/20 10:50:23;;;;;;;3.40;1.67;;;17.90;1.00;;;;;;4834560;29;20700;-39
2022/11/20 10:53:16;;;;;;;4.38;1.67;;;18.00;1.00;;;;;;4841164;29;20090;-39
2022/11/20 10:55:48;;;;;;;5.53;1.83;;;18.20;1.00;;;;;;4841404;29;20110;-38
2022/11/20 10:58:31;;;;;;;3.45;1.55;;;18.30;1.00;;;;;;4840135;29;20078;-39
2022/11/20 11:01:19;;;;;;;8.80;1.50;;;18.40;1.00;;;;;;4834920;29;20670;-39
2022/11/20 11:03:46;;;;;;;3.53;1.90;;;18.50;1.00;;;;;;4824424;29;20049;-39
2022/11/20 11:06:37;;;;;;;4.82;1.75;;;18.50;1.00;;;;;;4825469;29;20053;-39
2022/11/20 11:09:15;;;;;;;4.72;2.30;;;18.60;1.00;;;;;;4841314;29;20106;-39
2022/11/20 11:11:42;;;;;;;2.30;1.60;;;18.70;1.00;;;;;;4830982;29;20050;-39
2022/11/20 11:14:12;;;;;;;2.45;1.70;;;18.70;1.00;;;;;;4839790;29;20057;-39
2022/11/20 11:16:55;;;;;;;3.00;1.83;;;18.80;1.00;;;;;;4828987;29;20042;-39
2022/11/20 11:19:22;;;;;;;;;;;18.80;1.00;;;;;;4831013;29;20054;-39
2022/11/20 11:21:54;;;;;;;3.17;2.00;;;18.70;1.00;;;;;;4824319;29;19955;-39
2022/11/20 11:24:23;;;;;;;2.23;1.67;;;18.70;1.00;;;;;;4826895;29;20054;-39
2022/11/20 11:27:13;;;;;;;3.65;2.13;;;18.70;1.00;;;;;;4839067;29;20317;-38
2022/11/20 11:29:43;;;;;;;;;;;18.70;1.00;;;;;;4833550;29;20046;-38
2022/11/20 11:32:17;;;;;;;2.70;1.75;;;18.70;1.00;;;;;;4844734;29;19949;-38
2022/11/20 11:34:43;;;;;;;4.13;2.10;;;18.70;1.00;;;;;;4844926;29;20046;-38
2022/11/20 11:37:21;;;;;;;2.60;1.70;;;18.70;1.00;;;;;;4844341;29;20041;-38
2022/11/20 11:39:48;;;;;;;3.95;2.13;;;18.70;1.00;;;;;;4844780;29;20099;-38
2022/11/20 11:42:41;;;;;;;2.85;1.83;;;18.70;1.00;;;;;;4844421;29;20054;-38
2022/11/20 11:45:14;;;;;;;4.35;1.67;;;18.70;1.00;;;;;;4828269;29;20478;-38
2022/11/20 11:47:43;;;;;;;3.05;2.10;;;18.70;1.00;;;;;;4842360;29;20110;-39
2022/11/20 11:50:20;;;;;;;8.00;2.30;;;18.60;1.00;;;;;;4829148;29;20048;-38
2022/11/20 11:53:14;;;;;;;5.30;1.83;;;18.60;1.00;;;;;;4839577;29;20050;-38
2022/11/20 11:56:19;;;;;;;5.75;2.42;;;18.50;1.00;;;;;;4806681;29;20559;-39
2022/11/20 11:58:52;;;;;;;3.88;1.52;;;18.40;1.00;;;;;;4716287;30;20133;-39
2022/11/20 12:01:49;;;;;;;3.97;2.77;;;18.40;1.00;;;;;;4716434;30;20151;-39
2022/11/20 12:04:25;;;;;;;4.55;2.20;;;18.40;1.00;;;;;;4782662;29;20158;-38
2022/11/20 12:06:58;;;;;;;3.20;2.00;;;18.30;1.00;;;;;;4807129;29;20047;-39
2022/11/20 12:09:31;;;;;;;;;;;18.30;1.00;;;;;;4808022;29;20070;-39
2022/11/20 12:12:12;;;;;;;4.80;2.45;;;18.20;1.00;;;;;;4810036;29;20436;-39
2022/11/20 12:14:43;;;;;;;4.68;2.38;;;18.10;1.00;;;;;;4832210;29;20037;-39
2022/11/20 12:17:12;;;;;;;5.45;2.80;;;18.10;1.00;;;;;;4834724;29;20408;-39
2022/11/20 12:19:40;;;;;;;4.47;2.60;;;18.00;1.00;;;;;;4829321;29;20058;-39
2022/11/20 12:22:50;;;;;;;2.83;2.22;;;17.90;1.00;;;;;;4829071;29;20502;-39
2022/11/20 12:25:24;;;;;;;2.88;1.92;;;17.90;1.00;;;;;;4828968;29;20050;-39
2022/11/20 12:28:18;;;;;;;3.50;2.17;;;17.80;1.00;;;;;;4844057;29;20050;-39
2022/11/20 12:31:24;;;;;;;4.57;2.33;;;17.80;1.00;;;;;;4813363;29;20055;-38
2022/11/20 12:34:13;;;;;;;3.88;2.05;;;17.70;1.00;;;;;;4806885;29;20149;-39
2022/11/20 12:36:56;;;;;;;3.67;2.30;;;17.60;1.00;;;;;;4793711;29;20354;-39
2022/11/20 12:39:35;;;;;;;5.35;2.28;;;17.60;1.00;;;;;;4806889;29;20051;-39
2022/11/20 12:45:23;;;;;;;4.43;2.28;;;17.40;1.00;;;;;;4830958;29;20449;-40
2022/11/20 12:48:17;;;;;;;4.82;2.28;;;17.40;1.00;;;;;;4832752;29;20054;-40
2022/11/20 12:50:43;;;;;;;4.20;2.60;;;17.30;1.00;;;;;;4826527;29;20046;-40
2022/11/20 12:54:00;;;;;;;3.25;1.88;;;17.20;1.00;;;;;;4827069;29;20050;-40
2022/11/20 12:56:43;;;;;;;5.82;2.60;;;17.20;1.00;;;;;;4830839;29;20137;-40
2022/11/20 12:59:28;;;;;;;3.38;2.05;;;17.10;1.00;;;;;;4843092;29;20042;-40
2022/11/20 13:02:16;;;;;;;5.13;2.22;;;17.10;1.00;;;;;;4842546;29;20046;-40
2022/11/20 13:04:49;;;;;;;4.25;2.25;;;17.00;1.00;;;;;;4836434;29;20042;-40
2022/11/20 13:07:17;;;;;;;3.45;2.45;;;16.90;1.00;;;;;;4832645;29;20041;-40
2022/11/20 13:09:49;;;;;;;3.17;2.03;;;16.90;1.00;;;;;;4842904;29;20049;-40
2022/11/20 13:12:40;;;;;;;3.15;2.08;;;16.90;1.00;;;;;;4830129;29;20046;-40
2022/11/20 13:15:21;;;;;;;3.25;1.80;;;16.80;1.00;;;;;;4839819;29;20050;-40
2022/11/20 13:17:49;;;;;;;2.83;1.95;;;16.70;1.00;;;;;;4832603;29;20046;-38
2022/11/20 13:20:18;;;;;;;4.63;2.15;;;16.70;1.00;;;;;;4836756;29;20042;-38
2022/11/20 13:22:51;;;;;;;3.60;2.35;;;16.60;1.00;;;;;;4842631;29;20046;-38
2022/11/20 13:25:25;;;;;;;3.38;2.00;;;16.60;1.00;;;;;;4839492;29;20042;-38
2022/11/20 13:27:53;;;;;;;4.38;2.38;;;16.50;1.00;;;;;;4842832;29;20058;-38
2022/11/20 13:30:25;;;;;;;5.68;3.00;;;16.40;1.00;;;;;;4841015;29;20081;-38